Time;durP1;ratioP1;P1;durP2;ratioP2;P2;SDS_P1;SDS_P2;PMS_P1;PMS_P2;Temp;Humidity;BMP_temperature;BMP_pressure;BME280_temperature;BME280_humidity;BME280_pressure;Samples;Min_cycle;Max_cycle;Signal;HPM_P1;HPM_P2
2022/04/20 00:01:08;;;;;;;3.63;2.57;;;10.30;43.00;;;;;;5067082;28;20420;-75
2022/04/20 00:03:54;;;;;;;4.17;2.27;;;10.20;44.20;;;;;;5065907;28;20435;-76
2022/04/20 00:06:41;;;;;;;4.33;2.53;;;10.30;45.10;;;;;;5072405;28;20458;-76
2022/04/20 00:09:26;;;;;;;4.27;2.03;;;10.20;46.00;;;;;;5068708;28;20519;-76
2022/04/20 00:12:12;;;;;;;3.77;2.53;;;10.30;45.00;;;;;;5072881;28;20442;-76
2022/04/20 00:14:57;;;;;;;4.13;2.47;;;10.20;45.40;;;;;;5067757;28;20413;-76
2022/04/20 00:17:43;;;;;;;4.07;2.40;;;10.20;45.80;;;;;;5071387;28;20532;-76
2022/04/20 00:20:29;;;;;;;4.63;2.40;;;10.00;45.40;;;;;;5071594;28;20428;-76
2022/04/20 00:23:16;;;;;;;3.40;2.23;;;9.70;49.20;;;;;;5065760;28;20458;-76
2022/04/20 00:26:02;;;;;;;3.87;2.50;;;9.70;49.20;;;;;;5067575;28;20425;-75
2022/04/20 00:28:47;;;;;;;4.00;2.37;;;9.70;49.70;;;;;;5071857;28;20449;-75
2022/04/20 00:31:33;;;;;;;5.40;2.47;;;9.60;51.00;;;;;;5069028;28;20434;-76
2022/04/20 00:34:19;;;;;;;3.43;2.50;;;9.50;51.90;;;;;;5063292;28;20428;-76
2022/04/20 00:37:05;;;;;;;4.73;2.67;;;9.60;52.50;;;;;;5070304;28;20409;-76
2022/04/20 00:39:53;;;;;;;5.83;2.47;;;9.60;53.70;;;;;;5072386;28;20474;-75
2022/04/20 00:42:41;;;;;;;3.90;2.33;;;9.60;50.40;;;;;;5068393;28;20432;-76
2022/04/20 00:45:28;;;;;;;3.60;2.40;;;9.50;52.60;;;;;;5071517;28;20454;-76
2022/04/20 00:48:14;;;;;;;3.70;2.13;;;9.60;53.20;;;;;;5067084;28;20534;-76
2022/04/20 00:51:00;;;;;;;5.20;2.33;;;9.60;53.30;;;;;;5070534;28;20492;-76
2022/04/20 00:53:45;;;;;;;5.30;2.43;;;9.40;55.10;;;;;;5065810;28;20794;-75
2022/04/20 00:56:33;;;;;;;4.37;2.47;;;9.30;53.70;;;;;;5075198;28;20428;-76
2022/04/20 00:59:20;;;;;;;3.90;2.23;;;9.20;54.60;;;;;;5071190;28;20441;-76
2022/04/20 01:02:06;;;;;;;3.93;1.93;;;9.10;56.40;;;;;;5061077;28;20417;-76
2022/04/20 01:04:51;;;;;;;9.13;2.43;;;9.10;56.10;;;;;;5070228;28;20413;-76
2022/04/20 01:07:37;;;;;;;2.83;2.23;;;9.00;58.40;;;;;;5066100;28;21183;-76
2022/04/20 01:10:23;;;;;;;3.13;2.30;;;8.90;58.80;;;;;;5069509;28;20821;-76
2022/04/20 01:13:11;;;;;;;3.10;2.10;;;8.90;58.40;;;;;;5066564;28;20845;-75
2022/04/20 01:15:57;;;;;;;3.60;2.27;;;8.80;60.10;;;;;;5070079;28;20798;-76
2022/04/20 01:18:44;;;;;;;3.20;1.87;;;8.70;59.00;;;;;;5072953;28;20964;-76
2022/04/20 01:21:31;;;;;;;3.10;2.50;;;8.60;58.50;;;;;;5071119;28;20436;-76
2022/04/20 01:24:17;;;;;;;3.30;2.10;;;8.50;62.10;;;;;;5067710;28;20489;-76
2022/04/20 01:27:03;;;;;;;3.30;2.27;;;8.40;62.20;;;;;;5071401;28;20434;-76
2022/04/20 01:29:50;;;;;;;3.60;2.30;;;8.30;61.10;;;;;;5069034;28;20453;-76
2022/04/20 01:32:36;;;;;;;6.00;2.03;;;8.30;62.20;;;;;;5064679;28;20743;-76
2022/04/20 01:35:22;;;;;;;4.37;2.57;;;8.50;61.70;;;;;;5066503;28;20871;-76
2022/04/20 01:38:09;;;;;;;8.83;2.67;;;8.50;60.80;;;;;;5068250;28;20593;-76
2022/04/20 01:40:55;;;;;;;3.87;2.33;;;8.40;61.40;;;;;;5069427;28;20448;-76
2022/04/20 01:43:41;;;;;;;3.30;2.20;;;8.50;61.40;;;;;;5062299;28;20453;-76
2022/04/20 01:46:26;;;;;;;3.60;2.13;;;8.40;61.40;;;;;;5065663;28;20486;-76
2022/04/20 01:49:12;;;;;;;4.10;2.70;;;8.40;61.20;;;;;;5069703;28;20444;-76
2022/04/20 01:51:58;;;;;;;3.37;2.03;;;8.30;61.80;;;;;;5066213;28;20459;-76
2022/04/20 01:54:45;;;;;;;3.10;2.03;;;8.30;61.00;;;;;;5063985;28;20426;-76
2022/04/20 01:57:31;;;;;;;4.70;2.73;;;8.30;61.30;;;;;;5068062;28;20987;-76
2022/04/20 02:00:17;;;;;;;3.03;2.10;;;8.20;62.10;;;;;;5068611;28;20410;-76
2022/04/20 02:03:02;;;;;;;3.63;2.63;;;8.10;62.00;;;;;;5066316;28;20425;-76
2022/04/20 02:05:47;;;;;;;3.90;2.50;;;8.10;62.30;;;;;;5076948;28;20442;-75
2022/04/20 02:08:33;;;;;;;9.80;2.53;;;8.00;62.70;;;;;;5062800;28;21037;-76
2022/04/20 02:11:20;;;;;;;7.73;3.67;;;8.10;63.90;;;;;;5067240;28;21290;-75
2022/04/20 02:14:06;;;;;;;4.30;2.87;;;8.00;63.20;;;;;;5069660;28;20428;-76
2022/04/20 02:16:52;;;;;;;5.93;2.60;;;7.90;64.00;;;;;;5069689;28;20579;-76
2022/04/20 02:19:37;;;;;;;3.60;2.33;;;8.00;65.30;;;;;;5070332;28;20485;-77
2022/04/20 02:22:23;;;;;;;3.47;2.43;;;7.80;65.70;;;;;;5068510;28;20446;-76
2022/04/20 02:25:09;;;;;;;3.10;2.37;;;7.80;66.30;;;;;;5065857;28;20508;-76
2022/04/20 02:27:56;;;;;;;5.87;3.23;;;7.80;65.70;;;;;;5065498;28;20544;-76
2022/04/20 02:30:42;;;;;;;3.80;2.60;;;7.80;65.70;;;;;;5066315;28;20442;-76
2022/04/20 02:33:28;;;;;;;5.80;2.80;;;7.90;65.70;;;;;;5075736;28;20442;-76
2022/04/20 02:36:13;;;;;;;10.63;3.10;;;7.70;65.60;;;;;;5073261;28;20576;-76
2022/04/20 02:39:03;;;;;;;3.97;2.07;;;7.60;65.90;;;;;;5069080;28;20439;-75
2022/04/20 02:41:49;;;;;;;3.63;2.50;;;7.70;67.90;;;;;;5072197;28;20425;-76
2022/04/20 02:44:37;;;;;;;3.97;3.03;;;7.50;66.90;;;;;;5068091;28;20447;-76
2022/04/20 02:47:23;;;;;;;5.40;2.83;;;7.60;66.80;;;;;;5068671;28;20516;-75
2022/04/20 02:50:09;;;;;;;5.13;3.20;;;7.60;67.60;;;;;;5070412;28;20478;-75
2022/04/20 02:52:55;;;;;;;7.87;3.33;;;7.50;67.80;;;;;;5077012;28;20779;-75
2022/04/20 02:55:42;;;;;;;3.97;2.63;;;7.50;68.50;;;;;;5074209;28;20421;-76
2022/04/20 02:58:27;;;;;;;5.00;3.40;;;7.40;69.20;;;;;;5067890;28;20468;-76
2022/04/20 03:01:14;;;;;;;4.33;3.40;;;7.50;68.70;;;;;;5066706;28;20417;-76
2022/04/20 03:04:00;;;;;;;5.17;3.63;;;7.40;68.90;;;;;;5072769;28;20455;-76
2022/04/20 03:06:46;;;;;;;4.17;2.53;;;7.40;69.60;;;;;;5076651;28;20441;-76
2022/04/20 03:09:32;;;;;;;4.43;2.87;;;7.40;69.50;;;;;;5072192;28;20479;-76
2022/04/20 03:12:18;;;;;;;3.70;2.80;;;7.30;70.00;;;;;;5072733;28;20811;-76
2022/04/20 03:15:04;;;;;;;10.20;3.10;;;7.20;69.90;;;;;;5075780;28;20582;-76
2022/04/20 03:17:51;;;;;;;4.03;3.30;;;7.10;71.10;;;;;;5068240;28;20423;-76
2022/04/20 03:20:38;;;;;;;4.93;3.60;;;7.10;70.50;;;;;;5074285;28;20568;-76
2022/04/20 03:23:24;;;;;;;11.40;3.20;;;7.20;71.00;;;;;;5074299;28;20424;-75
2022/04/20 03:26:10;;;;;;;6.93;3.13;;;7.10;71.00;;;;;;5071795;28;20932;-76
2022/04/20 03:28:56;;;;;;;7.40;2.80;;;7.00;71.70;;;;;;5069637;28;20451;-75
2022/04/20 03:31:42;;;;;;;6.67;2.77;;;7.00;72.70;;;;;;5074848;28;20539;-76
2022/04/20 03:34:30;;;;;;;5.27;3.03;;;7.10;72.50;;;;;;5070376;28;20447;-75
2022/04/20 03:37:15;;;;;;;7.00;2.90;;;7.10;72.50;;;;;;5072258;28;20564;-76
2022/04/20 03:40:01;;;;;;;5.30;3.10;;;7.30;72.50;;;;;;5072353;28;20813;-76
2022/04/20 03:42:46;;;;;;;3.70;2.97;;;7.40;72.00;;;;;;5074091;28;20417;-76
2022/04/20 03:45:32;;;;;;;3.77;2.70;;;7.30;71.80;;;;;;5070562;28;20517;-76
2022/04/20 03:48:18;;;;;;;4.37;2.60;;;7.30;71.40;;;;;;5103228;22;20625;-70
2022/04/20 03:51:05;;;;;;;8.47;3.37;;;7.30;71.40;;;;;;5112313;28;20411;-70
2022/04/20 03:53:51;;;;;;;5.53;2.70;;;7.10;72.10;;;;;;5107792;28;20456;-71
2022/04/20 03:59:37;;;;;;;3.77;2.57;;;7.00;71.30;;;;;;5108961;28;21000;-70
2022/04/20 04:02:23;;;;;;;5.70;3.03;;;7.00;71.80;;;;;;5107115;28;20988;-70
2022/04/20 04:05:09;;;;;;;4.53;3.30;;;6.80;70.90;;;;;;5109847;28;20505;-70
2022/04/20 04:07:56;;;;;;;4.70;2.70;;;6.70;71.70;;;;;;5107735;28;20512;-71
2022/04/20 04:10:42;;;;;;;5.23;3.10;;;6.60;71.90;;;;;;5109826;28;20441;-71
2022/04/20 04:13:27;;;;;;;4.00;3.10;;;6.60;71.70;;;;;;5108994;28;20495;-71
2022/04/20 04:16:13;;;;;;;4.37;3.13;;;6.50;71.70;;;;;;5108796;28;20421;-71
2022/04/20 04:18:58;;;;;;;6.63;3.40;;;6.30;71.80;;;;;;5110108;27;20466;-70
2022/04/20 04:21:46;;;;;;;4.57;3.10;;;6.20;73.70;;;;;;5109873;28;21382;-71
2022/04/20 04:24:36;;;;;;;8.43;3.10;;;6.20;73.90;;;;;;5109425;28;20490;-71
2022/04/20 04:27:22;;;;;;;7.40;3.07;;;6.20;73.80;;;;;;5105622;28;20416;-71
2022/04/20 04:30:08;;;;;;;3.90;2.70;;;6.30;73.20;;;;;;5109112;28;20497;-71
2022/04/20 04:32:54;;;;;;;3.77;3.10;;;6.30;73.20;;;;;;5110728;28;20505;-71
2022/04/20 04:35:40;;;;;;;5.17;3.37;;;6.40;73.20;;;;;;5109254;28;20448;-71
2022/04/20 04:38:26;;;;;;;5.00;3.50;;;6.50;73.40;;;;;;5109397;28;20440;-71
2022/04/20 04:41:13;;;;;;;4.23;3.33;;;6.30;73.80;;;;;;5110116;28;20441;-71
2022/04/20 04:43:58;;;;;;;5.10;3.10;;;6.10;73.70;;;;;;5107865;28;20460;-70
2022/04/20 04:49:47;;;;;;;5.37;3.53;;;6.00;74.30;;;;;;5109737;28;20560;-71
2022/04/20 04:52:33;;;;;;;40.03;27.90;;;6.00;75.00;;;;;;5109324;28;20438;-71
2022/04/20 04:55:19;;;;;;;6.33;4.20;;;6.10;75.20;;;;;;5104936;28;20950;-71
2022/04/20 04:58:06;;;;;;;3.83;2.70;;;6.00;75.30;;;;;;5109140;28;20470;-71
2022/04/20 05:00:53;;;;;;;4.53;2.80;;;6.10;75.60;;;;;;5109222;28;20805;-72
2022/04/20 05:03:38;;;;;;;4.10;3.33;;;6.20;75.50;;;;;;5103561;28;20448;-72
2022/04/20 05:06:24;;;;;;;5.27;4.00;;;6.30;75.10;;;;;;5106506;28;20944;-71
2022/04/20 05:09:09;;;;;;;6.70;3.37;;;6.50;74.80;;;;;;5108713;28;20829;-71
2022/04/20 05:11:55;;;;;;;7.33;3.67;;;6.60;74.10;;;;;;5110432;28;20432;-71
2022/04/20 05:14:42;;;;;;;11.43;3.60;;;6.60;74.50;;;;;;5109720;28;20426;-71
2022/04/20 05:17:28;;;;;;;5.20;3.10;;;6.50;74.70;;;;;;5108309;28;20460;-71
2022/04/20 05:20:14;;;;;;;8.43;3.57;;;6.50;75.60;;;;;;5109388;28;20997;-71
2022/04/20 05:23:00;;;;;;;5.57;3.30;;;6.50;75.40;;;;;;5106410;28;20965;-71
2022/04/20 05:25:45;;;;;;;3.83;2.50;;;6.60;75.90;;;;;;5104984;28;20588;-71
2022/04/20 05:28:31;;;;;;;5.27;2.80;;;6.60;76.30;;;;;;5107950;28;20479;-72
2022/04/20 05:31:19;;;;;;;5.10;3.40;;;6.70;76.50;;;;;;5106467;28;20472;-70
2022/04/20 05:34:04;;;;;;;5.60;3.20;;;6.80;76.30;;;;;;5108449;28;20439;-71
2022/04/20 05:42:59;;;;;;;10.50;5.97;;;7.20;73.60;;;;;;5107598;27;20439;-71
2022/04/20 05:45:44;;;;;;;4.40;3.47;;;7.40;74.70;;;;;;5105524;28;20505;-71
2022/04/20 05:48:31;;;;;;;4.30;3.40;;;7.50;73.80;;;;;;5104897;28;20487;-72
2022/04/20 05:51:17;;;;;;;5.97;3.30;;;7.70;73.00;;;;;;5108781;28;20478;-71
2022/04/20 05:54:03;;;;;;;4.40;3.10;;;7.70;72.80;;;;;;5106842;28;20444;-70
2022/04/20 05:56:48;;;;;;;6.83;3.37;;;7.90;72.70;;;;;;5107360;28;20420;-74
2022/04/20 05:59:34;;;;;;;5.77;3.20;;;8.10;72.60;;;;;;5108693;28;20479;-73
2022/04/20 06:02:20;;;;;;;9.70;3.30;;;8.30;70.70;;;;;;5108672;28;20427;-72
2022/04/20 06:05:08;;;;;;;6.17;3.27;;;8.50;69.80;;;;;;5107488;28;20422;-73
2022/04/20 06:07:54;;;;;;;4.80;3.60;;;8.60;68.70;;;;;;5109064;28;20782;-73
2022/04/20 06:10:40;;;;;;;6.20;3.60;;;8.90;66.50;;;;;;5106659;28;20508;-73
2022/04/20 06:13:27;;;;;;;7.20;3.53;;;9.00;64.80;;;;;;5105074;28;20452;-73
2022/04/20 06:16:13;;;;;;;5.50;3.17;;;9.30;64.20;;;;;;5104064;28;20893;-73
2022/04/20 06:18:58;;;;;;;9.27;3.60;;;9.50;62.30;;;;;;5107636;28;20450;-73
2022/04/20 06:21:45;;;;;;;4.37;3.20;;;9.70;61.90;;;;;;5108592;28;20463;-73
2022/04/20 06:24:31;;;;;;;4.80;2.90;;;9.90;60.30;;;;;;5104354;28;20530;-75
2022/04/20 06:27:17;;;;;;;6.43;3.33;;;9.90;59.20;;;;;;5107956;28;20456;-73
2022/04/20 06:30:02;;;;;;;6.63;3.00;;;10.00;57.00;;;;;;5107499;28;22016;-73
2022/04/20 06:32:48;;;;;;;4.13;2.90;;;10.10;55.90;;;;;;5109651;28;20415;-73
2022/04/20 06:35:34;;;;;;;5.77;2.80;;;10.20;56.80;;;;;;5104733;28;20448;-72
2022/04/20 06:38:22;;;;;;;7.40;3.30;;;10.40;55.00;;;;;;5107407;28;20521;-74
2022/04/20 06:41:07;;;;;;;8.23;3.10;;;10.40;53.10;;;;;;5105898;28;20423;-73
2022/04/20 06:43:53;;;;;;;4.47;2.90;;;10.50;53.40;;;;;;5106212;28;20810;-73
2022/04/20 06:46:39;;;;;;;8.93;3.30;;;10.50;52.30;;;;;;5107866;28;20440;-73
2022/04/20 06:49:24;;;;;;;5.73;3.07;;;10.60;51.80;;;;;;5108251;28;20446;-73
2022/04/20 06:58:33;;;;;;;4.13;3.00;;;10.60;48.50;;;;;;5106073;28;20738;-73
2022/04/20 07:01:18;;;;;;;4.27;2.93;;;10.70;51.30;;;;;;5107618;28;20437;-73
2022/04/20 07:04:05;;;;;;;3.90;3.10;;;10.70;50.00;;;;;;5096317;28;20447;-73
2022/04/20 07:06:51;;;;;;;7.50;3.43;;;10.70;49.30;;;;;;5108713;28;21221;-73
2022/04/20 07:09:37;;;;;;;5.80;3.53;;;10.70;49.80;;;;;;5106191;28;20935;-73
2022/04/20 07:12:24;;;;;;;5.77;3.40;;;10.80;50.80;;;;;;5105388;28;20448;-71
2022/04/20 07:15:10;;;;;;;6.90;3.23;;;10.90;47.90;;;;;;5103242;28;20442;-73
2022/04/20 07:17:55;;;;;;;5.13;3.00;;;11.00;50.40;;;;;;5108673;28;20435;-72
2022/04/20 07:20:41;;;;;;;5.10;2.90;;;11.10;49.30;;;;;;5111803;28;20407;-71
2022/04/20 07:23:27;;;;;;;6.10;3.57;;;11.20;48.40;;;;;;5110666;27;20606;-73
2022/04/20 07:26:13;;;;;;;5.10;3.37;;;11.10;48.20;;;;;;5110466;28;20464;-73
2022/04/20 07:29:00;;;;;;;5.70;3.60;;;11.20;47.30;;;;;;5109808;28;20796;-73
2022/04/20 07:31:46;;;;;;;4.33;3.57;;;11.30;47.10;;;;;;5110962;28;20594;-73
2022/04/20 07:34:32;;;;;;;4.53;2.97;;;11.40;44.20;;;;;;5108083;28;20440;-73
2022/04/20 07:37:17;;;;;;;4.40;2.50;;;11.40;44.10;;;;;;5110296;28;20947;-73
2022/04/20 07:40:04;;;;;;;4.87;2.90;;;11.40;44.10;;;;;;5111268;28;20955;-73
2022/04/20 07:42:54;;;;;;;4.57;3.20;;;11.40;43.30;;;;;;5109371;28;21058;-73
2022/04/20 07:45:40;;;;;;;4.80;3.17;;;11.40;42.20;;;;;;5109424;28;20523;-73
2022/04/20 07:48:26;;;;;;;6.03;4.40;;;11.50;43.30;;;;;;5108565;28;20466;-73
2022/04/20 07:51:12;;;;;;;4.53;2.90;;;11.60;41.20;;;;;;5108706;28;20467;-73
2022/04/20 07:53:58;;;;;;;5.00;3.10;;;11.70;42.30;;;;;;5105213;28;20444;-74
2022/04/20 07:56:43;;;;;;;4.73;2.63;;;11.70;40.60;;;;;;5109212;28;20423;-74
2022/04/20 07:59:29;;;;;;;5.33;3.07;;;11.80;43.30;;;;;;5112890;28;20831;-73
2022/04/20 08:02:18;;;;;;;5.27;2.90;;;12.00;41.10;;;;;;5109895;28;20417;-73
2022/04/20 08:05:04;;;;;;;4.53;2.70;;;12.10;38.30;;;;;;5109451;28;20448;-73
2022/04/20 08:07:51;;;;;;;3.97;2.80;;;12.10;39.60;;;;;;5112787;28;20512;-73
2022/04/20 08:10:37;;;;;;;4.47;2.53;;;12.10;36.10;;;;;;5109501;28;20577;-73
2022/04/20 08:16:28;;;;;;;3.70;2.60;;;12.10;35.20;;;;;;5107202;28;20996;-73
2022/04/20 08:19:16;;;;;;;3.70;2.60;;;12.20;35.90;;;;;;5110614;28;20469;-73
2022/04/20 08:22:02;;;;;;;3.70;2.40;;;12.20;37.00;;;;;;5110652;28;20817;-73
2022/04/20 08:24:47;;;;;;;5.10;2.43;;;12.30;34.60;;;;;;5106862;28;20437;-74
2022/04/20 08:27:33;;;;;;;5.57;3.03;;;12.40;35.90;;;;;;5110183;28;20444;-72
2022/04/20 08:30:19;;;;;;;4.50;2.30;;;12.50;34.80;;;;;;5110023;28;20453;-70
2022/04/20 08:33:06;;;;;;;4.43;2.80;;;12.60;36.90;;;;;;5102349;28;20496;-71
2022/04/20 08:35:53;;;;;;;3.70;2.60;;;12.80;33.90;;;;;;5111617;28;20976;-69
2022/04/20 08:38:39;;;;;;;6.90;3.10;;;12.80;33.40;;;;;;5110767;28;20517;-69
2022/04/20 08:41:24;;;;;;;2.87;2.33;;;12.90;34.10;;;;;;5113289;28;20411;-70
2022/04/20 08:44:14;;;;;;;4.43;3.23;;;12.90;32.00;;;;;;5105854;28;20435;-70
2022/04/20 08:47:02;;;;;;;5.00;2.57;;;13.00;33.30;;;;;;5110902;28;20892;-70
2022/04/20 08:49:49;;;;;;;3.90;2.40;;;13.00;29.90;;;;;;5109973;28;20504;-70
2022/04/20 08:52:42;;;;;;;5.03;3.10;;;13.00;31.20;;;;;;5104958;28;20477;-70
2022/04/20 08:55:28;;;;;;;3.53;2.43;;;13.00;31.30;;;;;;5107383;28;20448;-71
2022/04/20 08:58:15;;;;;;;4.30;2.60;;;13.00;30.10;;;;;;5106927;28;20473;-72
2022/04/20 09:01:00;;;;;;;5.13;2.40;;;13.00;31.90;;;;;;5106854;28;20445;-70
2022/04/20 09:03:47;;;;;;;4.37;2.57;;;13.10;32.60;;;;;;5102955;28;20478;-69
2022/04/20 09:06:34;;;;;;;4.00;2.53;;;13.30;30.80;;;;;;5103529;28;20551;-70
2022/04/20 09:09:28;;;;;;;4.90;2.63;;;13.40;30.00;;;;;;5105311;28;20555;-70
2022/04/20 09:12:16;;;;;;;5.60;3.23;;;13.40;31.20;;;;;;5102783;28;20457;-70
2022/04/20 09:15:03;;;;;;;5.47;3.10;;;13.50;30.50;;;;;;5109142;28;20858;-73
2022/04/20 09:17:49;;;;;;;3.90;2.57;;;13.60;31.70;;;;;;5108210;28;20506;-69
2022/04/20 09:20:35;;;;;;;6.60;2.83;;;13.70;32.80;;;;;;5104080;28;20492;-70
2022/04/20 09:23:27;;;;;;;5.97;2.57;;;13.80;29.50;;;;;;5105507;28;20982;-69
2022/04/20 09:26:16;;;;;;;4.10;2.20;;;13.80;30.40;;;;;;5106105;28;20469;-69
2022/04/20 09:29:06;;;;;;;5.03;2.70;;;13.80;33.70;;;;;;5112051;28;20437;-70
2022/04/20 09:31:53;;;;;;;5.90;2.50;;;13.80;31.40;;;;;;5107114;28;20574;-70
2022/04/20 09:34:53;;;;;;;3.93;2.73;;;13.80;30.70;;;;;;5111040;28;20425;-69
2022/04/20 09:37:41;;;;;;;3.83;2.83;;;13.80;30.10;;;;;;5109930;28;20458;-69
2022/04/20 09:40:33;;;;;;;9.93;2.83;;;13.90;33.00;;;;;;5108932;28;20445;-69
2022/04/20 09:43:22;;;;;;;5.00;2.53;;;14.00;30.70;;;;;;5107172;28;20495;-70
2022/04/20 09:48:50;;;;;;;4.13;2.40;;;14.10;32.10;;;;;;5110153;28;20429;-69
2022/04/20 09:49:14;;;;;;;3.70;2.70;;;14.30;31.50;;;;;;5107478;28;20465;-70
2022/04/20 09:52:08;;;;;;;3.73;2.50;;;14.40;30.20;;;;;;5108620;28;20847;-70
2022/04/20 09:54:55;;;;;;;4.83;2.63;;;14.40;31.50;;;;;;5109853;28;20935;-69
2022/04/20 09:57:41;;;;;;;5.40;3.00;;;14.40;31.60;;;;;;5111313;28;20529;-70
2022/04/20 10:00:29;;;;;;;4.83;2.67;;;14.50;30.30;;;;;;5097920;28;20487;-70
2022/04/20 10:03:24;;;;;;;4.90;2.63;;;14.60;31.70;;;;;;5104224;28;20449;-69
2022/04/20 10:06:10;;;;;;;6.20;2.70;;;14.80;31.70;;;;;;5106323;28;20408;-70
2022/04/20 10:08:57;;;;;;;3.80;2.43;;;14.80;27.80;;;;;;5101501;28;20636;-70
2022/04/20 10:11:43;;;;;;;4.57;2.83;;;14.90;30.20;;;;;;5110283;28;20434;-70
2022/04/20 10:17:44;;;;;;;3.97;2.60;;;15.10;29.80;;;;;;5105268;28;20537;-67
2022/04/20 10:20:33;;;;;;;3.20;2.50;;;15.20;30.40;;;;;;5103113;28;20437;-70
2022/04/20 10:23:20;;;;;;;4.83;2.70;;;15.30;29.80;;;;;;5106692;28;20452;-71
2022/04/20 10:26:09;;;;;;;3.43;2.53;;;15.40;28.30;;;;;;5105729;28;20409;-70
2022/04/20 10:29:05;;;;;;;4.20;2.70;;;15.50;28.30;;;;;;5108723;28;20464;-70
2022/04/20 10:32:00;;;;;;;3.23;2.40;;;15.60;29.30;;;;;;5106801;28;20477;-72
2022/04/20 10:34:50;;;;;;;4.53;2.90;;;15.70;29.20;;;;;;5099368;28;20441;-71
2022/04/20 10:37:36;;;;;;;7.03;2.70;;;15.70;27.60;;;;;;5106316;28;20950;-70
2022/04/20 10:40:22;;;;;;;6.63;2.60;;;15.80;29.30;;;;;;5103978;28;20502;-70
2022/04/20 10:43:22;;;;;;;4.30;3.10;;;15.90;27.90;;;;;;5105214;28;20443;-68
2022/04/20 10:46:14;;;;;;;4.80;2.70;;;15.90;28.30;;;;;;5109480;28;20424;-70
2022/04/20 10:49:02;;;;;;;3.10;2.50;;;15.90;28.10;;;;;;5109412;28;20464;-70
2022/04/20 10:51:49;;;;;;;4.03;2.80;;;16.10;29.50;;;;;;5110937;28;20476;-68
2022/04/20 10:54:49;;;;;;;3.60;2.57;;;16.20;28.50;;;;;;5109610;28;20444;-70
2022/04/20 10:57:36;;;;;;;4.30;2.47;;;16.10;27.80;;;;;;5113911;28;20413;-70
2022/04/20 11:00:27;;;;;;;4.93;3.43;;;16.20;28.90;;;;;;5113256;27;20486;-70
2022/04/20 11:03:13;;;;;;;4.37;3.10;;;16.40;27.80;;;;;;5106095;28;20448;-69
2022/04/20 11:05:59;;;;;;;4.60;2.80;;;16.50;28.40;;;;;;5109856;28;21031;-70
2022/04/20 11:08:46;;;;;;;4.30;2.93;;;16.40;26.90;;;;;;5111631;28;20467;-68
2022/04/20 11:21:21;;;;;;;4.33;3.10;;;16.90;28.70;;;;;;5110977;27;20544;-71
2022/04/20 11:24:11;;;;;;;5.30;2.77;;;17.00;27.30;;;;;;5106075;28;20952;-70
2022/04/20 11:26:58;;;;;;;4.50;2.90;;;17.00;25.80;;;;;;5108379;28;20423;-71
2022/04/20 11:29:44;;;;;;;5.00;3.30;;;17.10;26.70;;;;;;5106682;28;20857;-70
2022/04/20 11:32:31;;;;;;;3.80;2.70;;;17.10;25.40;;;;;;5103943;28;20480;-70
2022/04/20 11:35:17;;;;;;;3.83;2.83;;;17.20;24.10;;;;;;5110340;28;20427;-70
2022/04/20 11:38:02;;;;;;;3.47;2.73;;;17.20;26.00;;;;;;5104509;28;21133;-71
2022/04/20 11:40:52;;;;;;;5.10;3.23;;;17.30;24.20;;;;;;5112840;28;20882;-70
2022/04/20 11:43:38;;;;;;;3.50;2.53;;;17.30;25.10;;;;;;5109645;28;20901;-71
2022/04/20 11:46:24;;;;;;;4.87;3.50;;;17.50;25.40;;;;;;5108045;28;20949;-73
2022/04/20 11:49:11;;;;;;;4.43;2.80;;;17.50;24.50;;;;;;5110166;28;20477;-73
2022/04/20 11:51:57;;;;;;;4.27;2.67;;;17.60;24.40;;;;;;5111658;28;20457;-73
2022/04/20 11:54:45;;;;;;;3.70;2.60;;;17.70;25.60;;;;;;5100346;28;20446;-73
2022/04/20 11:57:32;;;;;;;5.00;2.67;;;17.80;23.20;;;;;;5110629;27;20486;-73
2022/04/20 12:00:21;;;;;;;5.30;2.70;;;17.80;23.10;;;;;;5108251;28;20937;-70
2022/04/20 12:03:08;;;;;;;4.13;2.77;;;18.00;24.60;;;;;;5107264;28;20458;-70
2022/04/20 12:06:03;;;;;;;5.43;2.47;;;18.10;24.00;;;;;;5105919;28;20804;-70
2022/04/20 12:08:54;;;;;;;4.63;2.60;;;18.40;23.60;;;;;;5110068;28;20469;-70
2022/04/20 12:11:41;;;;;;;3.97;3.10;;;18.50;21.70;;;;;;5111492;28;20569;-71
2022/04/20 12:14:32;;;;;;;10.10;2.50;;;18.40;20.30;;;;;;5107795;28;21038;-72
2022/04/20 12:17:20;;;;;;;4.30;2.63;;;18.40;21.90;;;;;;5110255;28;20763;-73
2022/04/20 12:20:07;;;;;;;4.60;3.10;;;18.30;21.90;;;;;;5109309;28;20464;-73
2022/04/20 12:23:05;;;;;;;8.53;2.80;;;18.30;21.40;;;;;;5104401;28;20445;-73
2022/04/20 12:25:52;;;;;;;4.10;2.53;;;18.30;23.40;;;;;;5107186;28;20440;-73
2022/04/20 12:28:47;;;;;;;3.50;2.40;;;18.50;21.50;;;;;;5111423;28;20531;-73
2022/04/20 12:31:34;;;;;;;4.07;3.07;;;18.60;22.70;;;;;;5105840;28;20586;-72
2022/04/20 12:34:21;;;;;;;4.20;3.40;;;18.70;21.80;;;;;;5104831;28;20592;-73
2022/04/20 12:37:15;;;;;;;4.60;2.90;;;18.70;18.90;;;;;;5112683;28;20783;-73
2022/04/20 12:40:19;;;;;;;3.20;2.80;;;18.60;20.40;;;;;;5110176;28;20826;-73
2022/04/20 12:43:07;;;;;;;4.40;3.30;;;18.60;20.70;;;;;;5109417;28;20437;-72
2022/04/20 12:46:13;;;;;;;4.90;2.90;;;18.60;20.60;;;;;;5104530;28;20491;-73
2022/04/20 12:49:00;;;;;;;4.40;2.70;;;18.80;21.20;;;;;;5109994;28;20472;-71
2022/04/20 12:51:46;;;;;;;5.03;2.83;;;18.90;21.20;;;;;;5111644;28;20463;-71
2022/04/20 12:54:32;;;;;;;5.00;2.57;;;19.20;20.10;;;;;;5103816;28;20816;-70
2022/04/20 13:03:34;;;;;;;5.70;2.80;;;19.80;20.70;;;;;;5103024;28;20967;-70
2022/04/20 13:06:22;;;;;;;3.53;2.70;;;20.20;19.50;;;;;;5108825;28;20436;-71
2022/04/20 13:09:08;;;;;;;4.83;2.67;;;20.50;18.80;;;;;;5111771;27;20572;-71
2022/04/20 13:11:54;;;;;;;5.50;2.90;;;20.60;19.80;;;;;;5109208;28;21102;-71
2022/04/20 13:14:39;;;;;;;3.80;2.80;;;20.70;20.00;;;;;;5107199;28;20445;-71
2022/04/20 13:17:25;;;;;;;4.03;2.87;;;20.60;18.30;;;;;;5105103;28;20522;-70
2022/04/20 13:20:11;;;;;;;4.03;3.43;;;20.50;17.70;;;;;;5104505;28;20498;-69
2022/04/20 13:22:59;;;;;;;5.60;3.60;;;20.30;18.50;;;;;;5106898;28;20464;-70
2022/04/20 13:28:49;;;;;;;5.50;3.07;;;20.40;17.50;;;;;;5106378;28;20510;-72
2022/04/20 13:31:34;;;;;;;3.73;2.97;;;20.50;18.50;;;;;;5107586;28;20577;-69
2022/04/20 13:34:19;;;;;;;6.77;2.90;;;20.70;17.10;;;;;;5103821;28;20441;-70
2022/04/20 13:37:05;;;;;;;4.67;2.57;;;21.00;17.90;;;;;;5111897;28;20791;-71
2022/04/20 13:39:52;;;;;;;3.87;2.83;;;21.10;18.10;;;;;;5110798;28;20916;-70
2022/04/20 13:42:38;;;;;;;5.83;3.40;;;21.00;17.30;;;;;;5112027;28;20418;-71
2022/04/20 13:45:24;;;;;;;10.37;3.60;;;20.90;16.20;;;;;;5109624;28;20950;-71
2022/04/20 13:48:10;;;;;;;5.63;3.40;;;20.80;15.60;;;;;;5108147;28;20515;-70
2022/04/20 13:50:56;;;;;;;4.70;2.83;;;20.90;16.60;;;;;;5108843;28;20499;-70
2022/04/20 13:53:41;;;;;;;3.87;2.80;;;21.00;16.90;;;;;;5105955;28;20803;-71
2022/04/20 13:56:28;;;;;;;3.80;3.00;;;21.00;17.40;;;;;;5107174;28;20445;-70
2022/04/20 13:59:14;;;;;;;5.70;3.60;;;21.00;18.20;;;;;;5102667;28;20500;-71
2022/04/20 14:02:01;;;;;;;6.07;4.00;;;21.30;17.20;;;;;;5108640;28;20429;-72
2022/04/20 14:04:47;;;;;;;4.90;3.33;;;21.30;16.60;;;;;;5111466;28;20554;-72
2022/04/20 14:07:33;;;;;;;13.10;3.27;;;21.40;16.10;;;;;;5106129;28;21068;-70
2022/04/20 14:10:19;;;;;;;5.40;2.80;;;21.40;16.10;;;;;;5108854;28;20452;-71
2022/04/20 14:13:08;;;;;;;3.80;3.07;;;21.30;17.20;;;;;;5107860;28;20476;-72
2022/04/20 14:15:54;;;;;;;4.07;2.90;;;21.30;17.60;;;;;;5104029;28;20437;-72
2022/04/20 14:18:40;;;;;;;5.53;3.03;;;21.40;17.40;;;;;;5096876;28;20602;-70
2022/04/20 14:21:25;;;;;;;5.90;3.27;;;21.40;17.30;;;;;;5109411;28;20548;-72
2022/04/20 14:24:12;;;;;;;4.50;3.30;;;21.50;16.20;;;;;;5109137;28;20449;-72
2022/04/20 14:33:14;;;;;;;4.13;2.90;;;20.90;17.30;;;;;;5071520;28;20522;-73
2022/04/20 14:36:00;;;;;;;4.67;3.27;;;20.80;14.90;;;;;;5115187;28;20433;-72
2022/04/20 14:38:46;;;;;;;4.43;3.17;;;20.60;15.40;;;;;;5109595;28;20460;-71
2022/04/20 14:41:31;;;;;;;5.60;2.90;;;20.50;16.40;;;;;;5107323;28;20814;-71
2022/04/20 14:44:17;;;;;;;3.00;2.70;;;20.30;15.20;;;;;;5112793;28;20490;-72
2022/04/20 14:47:06;;;;;;;5.00;3.30;;;20.20;15.10;;;;;;5111035;28;20798;-72
2022/04/20 14:49:52;;;;;;;4.83;3.50;;;20.30;16.30;;;;;;5113590;28;21063;-72
2022/04/20 14:52:38;;;;;;;5.60;2.93;;;20.30;16.60;;;;;;5114783;28;21072;-72
2022/04/20 14:55:23;;;;;;;7.20;3.70;;;20.30;17.00;;;;;;5104263;28;20432;-72
2022/04/20 14:58:09;;;;;;;6.13;4.00;;;20.30;16.90;;;;;;5111235;28;20476;-72
2022/04/20 15:00:55;;;;;;;5.60;3.47;;;20.30;16.50;;;;;;5110450;28;20498;-72
2022/04/20 15:03:43;;;;;;;6.57;2.73;;;20.30;16.60;;;;;;5111656;28;20448;-72
2022/04/20 15:06:29;;;;;;;7.30;3.70;;;20.30;15.90;;;;;;5113417;28;20424;-72
2022/04/20 15:09:15;;;;;;;6.30;3.40;;;20.20;16.30;;;;;;5113278;28;20456;-72
2022/04/20 15:12:01;;;;;;;5.87;3.20;;;20.30;16.80;;;;;;5111308;28;20520;-71
2022/04/20 15:14:48;;;;;;;3.73;3.13;;;20.40;15.30;;;;;;5112906;28;20447;-71
2022/04/20 15:17:33;;;;;;;3.90;3.30;;;20.20;15.10;;;;;;5109953;28;20453;-72
2022/04/20 15:20:20;;;;;;;6.10;3.40;;;20.20;16.80;;;;;;5107226;28;20444;-71
2022/04/20 15:23:08;;;;;;;4.73;2.60;;;20.30;16.40;;;;;;5111275;28;20441;-73